createdAt,value
2022-08-09T00:01:54.128Z,8.6
2022-08-09T00:04:00.477Z,7.2
2022-08-09T00:06:16.614Z,7.9
2022-08-09T00:07:44.864Z,8.5
2022-08-09T00:09:47.419Z,9.6
2022-08-09T00:12:03.516Z,10.5
2022-08-09T00:13:58.441Z,8.4
2022-08-09T00:16:03.073Z,7.6
2022-08-09T00:18:11.238Z,9
2022-08-09T00:19:10.356Z,10.6
2022-08-09T00:21:13.656Z,12.5
2022-08-09T00:23:56.506Z,10.4
2022-08-09T00:25:23.229Z,9.1
2022-08-09T00:27:28.577Z,17.7
2022-08-09T00:30:16.352Z,8.7
2022-08-09T00:31:59.745Z,11.4
2022-08-09T00:33:50.618Z,8.8
2022-08-09T00:35:44.106Z,10.1
2022-08-09T00:37:47.975Z,12.4
2022-08-09T00:40:12.873Z,8.4
2022-08-09T00:46:06.764Z,7.9
2022-08-09T00:48:15.446Z,9.5
2022-08-09T00:50:15.107Z,16.5
2022-08-09T00:52:18.409Z,13.9
2022-08-09T01:00:37.226Z,10.5
2022-08-09T01:02:41.119Z,10.1
2022-08-09T01:04:45.001Z,10.2
2022-08-09T01:06:54.867Z,13.6
2022-08-09T01:08:52.794Z,14
2022-08-09T01:10:59.970Z,11.3
2022-08-09T01:13:03.840Z,9.8
2022-08-09T01:15:10.018Z,10.2
2022-08-09T01:16:11.303Z,10.5
2022-08-09T01:18:15.211Z,9.2
2022-08-09T01:20:19.079Z,11.8
2022-08-09T01:22:22.984Z,16.2
2022-08-09T01:24:31.752Z,8.8
2022-08-09T01:26:35.617Z,11.9
2022-08-09T01:32:47.289Z,11.7
2022-08-09T01:34:51.206Z,13.1
2022-08-09T01:36:55.092Z,11.4
2022-08-09T01:47:17.797Z,11.1
2022-08-09T01:49:24.039Z,10.9
2022-08-09T01:51:26.206Z,12.4
2022-08-09T01:53:41.525Z,11.6
2022-08-09T01:55:36.588Z,14.4
2022-08-09T01:57:46.097Z,12.9
2022-08-09T02:01:59.898Z,11.1
2022-08-09T02:03:52.154Z,13.5
2022-08-09T02:06:03.990Z,11.7
2022-08-09T02:10:07.126Z,11.6
2022-08-09T02:13:14.588Z,16
2022-08-09T02:15:18.466Z,9.3
2022-08-09T02:17:59.261Z,9.7
2022-08-09T02:19:34.972Z,12
2022-08-09T02:21:34.271Z,11.9
2022-08-09T02:23:39.942Z,14.4
2022-08-09T02:25:42.327Z,12.4
2022-08-09T02:28:00.413Z,11.9
2022-08-09T02:29:48.972Z,11.9
2022-08-09T02:31:52.847Z,11.7
2022-08-09T02:34:07.514Z,12.7
2022-08-09T02:36:04.348Z,11.5
2022-08-09T02:38:07.786Z,13.6
2022-08-09T02:40:11.851Z,14.5
2022-08-09T02:42:15.575Z,11.5
2022-08-09T02:44:22.041Z,11.3
2022-08-09T02:48:31.195Z,18.9
2022-08-09T02:50:34.378Z,11.6
2022-08-09T02:52:38.368Z,12.8
2022-08-09T02:54:51.157Z,13.4
2022-08-09T02:56:51.334Z,14.4
2022-08-09T02:58:49.932Z,12.8
2022-08-09T03:05:05.727Z,13.3
2022-08-09T03:07:14.125Z,12.1
2022-08-09T03:12:06.137Z,16.5
2022-08-09T03:13:43.966Z,16
2022-08-09T03:16:04.118Z,16.3
2022-08-09T03:17:46.062Z,12.9
2022-08-09T03:19:58.680Z,16.2
2022-08-09T03:21:53.819Z,15.4
2022-08-09T03:23:57.692Z,16.1
2022-08-09T03:26:03.437Z,16.7
2022-08-09T03:28:05.482Z,17.1
2022-08-09T03:30:09.387Z,12.9
2022-08-09T03:32:16.527Z,15.1
2022-08-09T03:38:29.042Z,14.6
2022-08-09T03:50:54.733Z,15.6
2022-08-09T03:57:18.067Z,17.3
2022-08-09T04:01:17.509Z,17.6
2022-08-09T04:03:35.764Z,17.6
2022-08-09T04:05:27.797Z,15.5
2022-08-09T04:10:36.526Z,17.9
2022-08-09T04:12:40.783Z,13.2
2022-08-09T04:15:00.586Z,15.1
2022-08-09T04:16:51.447Z,13.8
2022-08-09T04:18:55.345Z,18.1
2022-08-09T04:23:03.107Z,15.2
2022-08-09T04:29:18.077Z,20.8
2022-08-09T04:31:21.966Z,17.3
2022-08-09T04:33:28.667Z,18
2022-08-09T04:35:29.738Z,15.7
2022-08-09T04:37:45.282Z,20.5
2022-08-09T04:39:40.393Z,14.6
2022-08-09T04:41:43.759Z,16.9
2022-08-09T04:48:00.940Z,18.9
2022-08-09T04:54:07.977Z,15.1
2022-08-09T04:58:19.018Z,20.3
2022-08-09T05:02:27.173Z,19.4
2022-08-09T05:03:42.807Z,17.7
2022-08-09T05:05:52.179Z,23.7
2022-08-09T05:07:38.170Z,26.3
2022-08-09T05:09:49.342Z,17.6
2022-08-09T05:11:49.239Z,21
2022-08-09T05:13:55.027Z,18.8
2022-08-09T05:15:57.209Z,21
2022-08-09T05:18:38.171Z,18.4
2022-08-09T05:20:04.770Z,19.8
2022-08-09T05:22:35.028Z,15.5
2022-08-09T05:24:12.544Z,18.4
2022-08-09T05:30:27.459Z,18
2022-08-09T05:34:35.236Z,22.5
2022-08-09T05:36:39.118Z,19.5
2022-08-09T05:40:50.594Z,22
2022-08-09T05:42:54.019Z,26.1
2022-08-09T05:44:57.934Z,27.5
2022-08-09T05:47:05.711Z,21
2022-08-09T05:49:07.438Z,24.9
2022-08-09T05:53:31.616Z,26.8
2022-08-09T05:55:21.731Z,24.9
2022-08-09T05:57:25.158Z,15.9
2022-08-09T05:59:28.355Z,20.8
2022-08-09T06:00:32.878Z,26.7
2022-08-09T06:02:36.182Z,19
2022-08-09T06:04:44.754Z,18.5
2022-08-09T06:08:52.633Z,13.9
2022-08-09T06:10:54.646Z,14.3
2022-08-09T06:13:11.865Z,18.6
2022-08-09T06:17:09.806Z,16.1
2022-08-09T06:25:25.099Z,9.2
2022-08-09T06:27:41.397Z,17.9
2022-08-09T06:29:32.854Z,14.4
2022-08-09T06:31:40.457Z,11
2022-08-09T06:35:57.676Z,14.8
2022-08-09T06:37:53.292Z,12
2022-08-09T06:39:59.784Z,14.3
2022-08-09T06:42:09.108Z,11.9
2022-08-09T06:44:03.190Z,11.4
2022-08-09T06:48:10.917Z,10.8
2022-08-09T06:50:18.921Z,9.6
2022-08-09T06:56:30.898Z,9.7
2022-08-09T07:03:01.783Z,8.1
2022-08-09T07:09:56.439Z,8.5
2022-08-09T07:11:23.424Z,9.2
2022-08-09T07:16:36.286Z,8.1
2022-08-09T07:17:39.897Z,7
2022-08-09T07:19:39.083Z,8
2022-08-09T07:23:57.990Z,6.7
2022-08-09T07:26:02.448Z,6.5
2022-08-09T07:27:57.544Z,8.2
2022-08-09T07:32:05.136Z,9.6
2022-08-09T07:36:15.992Z,5.7
2022-08-09T07:38:19.812Z,6.4
2022-08-09T07:40:26.836Z,5.9
2022-08-09T07:42:32.859Z,5
2022-08-09T07:44:52.128Z,5.9
2022-08-09T07:46:34.972Z,4.8
2022-08-09T07:50:52.783Z,4.2
2022-08-09T07:54:04.469Z,6.1
2022-08-09T07:56:03.525Z,4.7
2022-08-09T07:58:00.727Z,4.2
2022-08-09T08:02:11.677Z,3.6
2022-08-09T08:04:15.413Z,3.9
2022-08-09T08:08:59.714Z,4.8
2022-08-09T08:10:27.326Z,4.2
2022-08-09T08:17:00.801Z,9
2022-08-09T08:18:45.003Z,3.2
2022-08-09T08:20:48.784Z,7
2022-08-09T08:22:52.513Z,3.1
2022-08-09T08:24:57.476Z,3
2022-08-09T08:27:00.045Z,3.8
2022-08-09T08:33:24.350Z,2.9
2022-08-09T08:37:22.114Z,3
2022-08-09T08:39:25.848Z,3.1
2022-08-09T08:45:43.245Z,3.6
2022-08-09T08:47:44.961Z,3.7
2022-08-09T08:49:49.304Z,2.7
2022-08-09T08:52:59.175Z,3
2022-08-09T08:54:58.937Z,2.8
2022-08-09T08:59:19.901Z,2.5
2022-08-09T09:03:22.728Z,2.6
2022-08-09T09:07:24.734Z,2.7
2022-08-09T09:15:43.066Z,2.6
2022-08-09T09:17:49.429Z,2.4
2022-08-09T09:19:50.564Z,2.5
2022-08-09T09:32:16.414Z,3
2022-08-09T09:36:23.855Z,2.6
2022-08-09T09:38:36.678Z,3.2
2022-08-09T09:40:31.442Z,2.3
2022-08-09T09:46:52.096Z,2.4
2022-08-09T09:47:58.699Z,2.5
2022-08-09T09:50:14.206Z,4.7
2022-08-09T09:51:56.932Z,2.3
2022-08-09T09:54:21.044Z,2.4
2022-08-09T09:56:09.605Z,2.5
2022-08-09T09:58:18.669Z,2.5
2022-08-09T10:00:06.145Z,2.5
2022-08-09T19:28:17.880Z,3
2022-08-09T19:30:28.138Z,2.9
2022-08-09T19:32:26.682Z,4.8
2022-08-09T19:34:52.607Z,3.2
2022-08-09T19:36:53.779Z,3.2
2022-08-09T19:38:57.541Z,3.7
2022-08-09T19:41:04.614Z,2.8
2022-08-09T19:43:10.304Z,3.6
2022-08-09T19:45:12.207Z,3.4
2022-08-09T19:47:15.991Z,3.2
2022-08-09T19:50:08.985Z,3.2
2022-08-09T19:53:27.312Z,3.8
2022-08-09T19:56:02.044Z,2.9
2022-08-09T19:57:38.168Z,3
2022-08-09T19:59:59.504Z,3.2
2022-08-09T20:02:03.304Z,2.8
2022-08-09T20:04:11.218Z,2.8
2022-08-09T20:05:53.502Z,2.8
2022-08-09T20:08:00.285Z,3.4
2022-08-09T20:10:07.143Z,3.4
2022-08-09T20:12:07.985Z,4.8
2022-08-09T20:14:11.779Z,3.8
2022-08-09T20:16:35.408Z,3.5
2022-08-09T20:18:19.753Z,3.3
2022-08-09T20:20:24.637Z,3.5
2022-08-09T20:22:32.177Z,4.8
2022-08-09T20:24:34.495Z,3.6
2022-08-09T20:26:37.904Z,4.2
2022-08-09T20:28:48.647Z,3.9
2022-08-09T20:33:58.349Z,3.2
2022-08-09T20:38:22.316Z,2.9
2022-08-09T20:40:15.740Z,3.6
2022-08-09T20:48:22.804Z,3.3
2022-08-09T20:50:47.510Z,3.3
2022-08-09T20:52:34.087Z,3.1
2022-08-09T20:54:37.580Z,3.8
2022-08-09T21:00:49.697Z,3.6
2022-08-09T21:02:53.049Z,3.7
2022-08-09T21:05:56.926Z,3.9
2022-08-09T21:07:11.734Z,3.5
2022-08-09T21:09:11.822Z,6.3
2022-08-09T21:13:15.354Z,3.3
2022-08-09T21:18:22.214Z,4.8
2022-08-09T21:21:56.055Z,3.9
2022-08-09T21:23:47.794Z,5.7
2022-08-09T21:26:45.238Z,3.4
2022-08-09T21:28:51.823Z,3.9
2022-08-09T21:30:52.969Z,3.4
2022-08-09T21:32:57.191Z,5.2
2022-08-09T21:35:03.958Z,3.6
2022-08-09T21:37:18.157Z,3.5
2022-08-09T21:39:11.666Z,3.8
2022-08-09T21:41:17.057Z,3.4
2022-08-09T21:43:21.717Z,3.4
2022-08-09T21:45:23.178Z,4.2
2022-08-09T21:47:27.029Z,3.9
2022-08-09T21:49:39.365Z,4.3
2022-08-09T21:51:43.591Z,3.7
2022-08-09T21:53:41.877Z,3.7
2022-08-09T21:55:46.662Z,4.3
2022-08-09T21:57:59.421Z,7
2022-08-09T21:59:53.447Z,4.3
2022-08-09T22:02:00.297Z,3.6
2022-08-09T22:04:04.485Z,4.1
2022-08-09T22:06:08.311Z,3.6
2022-08-09T22:08:13.874Z,3.5
2022-08-09T22:10:22.220Z,3.5
2022-08-09T22:12:24.787Z,3.4
2022-08-09T22:14:23.753Z,3.6
2022-08-09T22:16:27.585Z,3.9
2022-08-09T22:18:34.720Z,7.2
2022-08-09T22:20:38.580Z,3.4
2022-08-09T22:22:42.425Z,3.4
2022-08-09T22:36:12.434Z,3.8
2022-08-09T22:38:16.291Z,3.7
2022-08-09T22:40:20.530Z,3.9
2022-08-09T22:48:15.665Z,4.3
2022-08-09T22:48:39.121Z,4
2022-08-09T22:56:54.728Z,3.9
2022-08-09T22:58:58.128Z,3.9
2022-08-09T23:01:05.642Z,4.2
2022-08-09T23:03:12.610Z,3.9
2022-08-09T23:05:12.979Z,3.6
2022-08-09T23:07:16.866Z,14.2
2022-08-09T23:09:20.713Z,3.8
2022-08-09T23:11:24.574Z,4
2022-08-09T23:20:07.530Z,3.8
2022-08-09T23:22:13.696Z,4.6
2022-08-09T23:24:17.558Z,4.2
2022-08-09T23:28:28.585Z,5.2
2022-08-09T23:30:32.407Z,4.1
2022-08-09T23:32:36.286Z,4.5
2022-08-09T23:34:40.155Z,4.9
2022-08-09T23:36:43.991Z,4.2
2022-08-09T23:38:48.403Z,4.5
2022-08-09T23:40:51.741Z,4.1
2022-08-09T23:42:58.898Z,5
2022-08-09T23:45:02.734Z,5
2022-08-09T23:47:06.596Z,4.1
2022-08-09T23:49:10.456Z,4.1
2022-08-09T23:51:14.328Z,4.3
2022-08-09T23:53:18.188Z,4.2
2022-08-09T23:55:22.050Z,4.2
2022-08-09T23:57:29.193Z,3.8
2022-08-09T23:59:33.057Z,4.5
